sensor_id;sensor_type;location;lat;lon;timestamp;P1;durP1;ratioP1;P2;durP2;ratioP2
16634;SDS011;8431;52.458;9.998;2022-09-01T00:01:34;1.08;;;0.95;;
16634;SDS011;8431;52.458;9.998;2022-09-01T00:04:03;0.95;;;0.95;;
16634;SDS011;8431;52.458;9.998;2022-09-01T00:06:32;1.60;;;0.90;;
16634;SDS011;8431;52.458;9.998;2022-09-01T00:09:01;0.80;;;0.80;;
16634;SDS011;8431;52.458;9.998;2022-09-01T00:11:31;1.23;;;0.90;;
16634;SDS011;8431;52.458;9.998;2022-09-01T00:14:00;0.80;;;0.80;;
16634;SDS011;8431;52.458;9.998;2022-09-01T00:16:29;1.50;;;0.98;;
16634;SDS011;8431;52.458;9.998;2022-09-01T00:18:57;0.73;;;0.70;;
16634;SDS011;8431;52.458;9.998;2022-09-01T00:21:25;1.27;;;0.90;;
16634;SDS011;8431;52.458;9.998;2022-09-01T00:23:54;1.17;;;0.90;;
16634;SDS011;8431;52.458;9.998;2022-09-01T00:26:22;0.77;;;0.77;;
16634;SDS011;8431;52.458;9.998;2022-09-01T00:28:49;3.38;;;1.00;;
16634;SDS011;8431;52.458;9.998;2022-09-01T00:31:17;1.00;;;1.00;;
16634;SDS011;8431;52.458;9.998;2022-09-01T00:33:45;3.85;;;0.95;;
16634;SDS011;8431;52.458;9.998;2022-09-01T00:36:15;2.60;;;1.00;;
16634;SDS011;8431;52.458;9.998;2022-09-01T00:38:43;1.10;;;1.10;;
16634;SDS011;8431;52.458;9.998;2022-09-01T00:41:11;2.30;;;0.80;;
16634;SDS011;8431;52.458;9.998;2022-09-01T00:43:40;1.02;;;1.02;;
16634;SDS011;8431;52.458;9.998;2022-09-01T00:46:10;0.80;;;0.80;;
16634;SDS011;8431;52.458;9.998;2022-09-01T00:48:41;1.17;;;0.85;;
16634;SDS011;8431;52.458;9.998;2022-09-01T00:51:09;0.93;;;0.93;;
16634;SDS011;8431;52.458;9.998;2022-09-01T00:53:38;1.90;;;1.13;;
16634;SDS011;8431;52.458;9.998;2022-09-01T00:56:08;2.00;;;1.08;;
16634;SDS011;8431;52.458;9.998;2022-09-01T00:58:35;0.90;;;0.90;;
16634;SDS011;8431;52.458;9.998;2022-09-01T01:01:04;1.15;;;0.80;;
16634;SDS011;8431;52.458;9.998;2022-09-01T01:03:32;0.93;;;0.93;;
16634;SDS011;8431;52.458;9.998;2022-09-01T01:06:01;1.30;;;0.90;;
16634;SDS011;8431;52.458;9.998;2022-09-01T01:08:33;0.95;;;0.95;;
16634;SDS011;8431;52.458;9.998;2022-09-01T01:11:03;1.25;;;1.15;;
16634;SDS011;8431;52.458;9.998;2022-09-01T01:13:34;1.25;;;0.90;;
16634;SDS011;8431;52.458;9.998;2022-09-01T01:16:12;1.10;;;1.10;;
16634;SDS011;8431;52.458;9.998;2022-09-01T01:18:40;1.48;;;0.93;;
16634;SDS011;8431;52.458;9.998;2022-09-01T01:21:10;1.05;;;1.05;;
16634;SDS011;8431;52.458;9.998;2022-09-01T01:24:01;1.00;;;1.00;;
16634;SDS011;8431;52.458;9.998;2022-09-01T01:26:36;1.20;;;1.10;;
16634;SDS011;8431;52.458;9.998;2022-09-01T01:29:03;1.00;;;1.00;;
16634;SDS011;8431;52.458;9.998;2022-09-01T01:31:34;3.50;;;1.25;;
16634;SDS011;8431;52.458;9.998;2022-09-01T01:34:02;1.02;;;1.02;;
16634;SDS011;8431;52.458;9.998;2022-09-01T01:36:34;1.10;;;1.10;;
16634;SDS011;8431;52.458;9.998;2022-09-01T01:39:06;1.15;;;1.15;;
16634;SDS011;8431;52.458;9.998;2022-09-01T01:41:37;1.10;;;1.10;;
16634;SDS011;8431;52.458;9.998;2022-09-01T01:44:09;1.13;;;1.13;;
16634;SDS011;8431;52.458;9.998;2022-09-01T01:46:39;1.13;;;1.13;;
16634;SDS011;8431;52.458;9.998;2022-09-01T01:49:08;1.30;;;1.10;;
16634;SDS011;8431;52.458;9.998;2022-09-01T01:51:37;1.60;;;1.50;;
16634;SDS011;8431;52.458;9.998;2022-09-01T01:54:06;1.30;;;1.30;;
16634;SDS011;8431;52.458;9.998;2022-09-01T01:56:33;1.67;;;1.20;;
16634;SDS011;8431;52.458;9.998;2022-09-01T01:59:05;1.05;;;1.05;;
16634;SDS011;8431;52.458;9.998;2022-09-01T02:01:37;1.05;;;1.05;;
16634;SDS011;8431;52.458;9.998;2022-09-01T02:04:07;1.30;;;1.30;;
16634;SDS011;8431;52.458;9.998;2022-09-01T02:06:35;1.45;;;1.40;;
16634;SDS011;8431;52.458;9.998;2022-09-01T02:09:05;1.05;;;1.05;;
16634;SDS011;8431;52.458;9.998;2022-09-01T02:11:32;2.92;;;1.30;;
16634;SDS011;8431;52.458;9.998;2022-09-01T02:14:02;1.20;;;1.20;;
16634;SDS011;8431;52.458;9.998;2022-09-01T02:16:32;2.83;;;1.15;;
16634;SDS011;8431;52.458;9.998;2022-09-01T02:19:01;1.10;;;1.10;;
16634;SDS011;8431;52.458;9.998;2022-09-01T02:21:31;1.40;;;1.30;;
16634;SDS011;8431;52.458;9.998;2022-09-01T02:24:00;1.10;;;1.10;;
16634;SDS011;8431;52.458;9.998;2022-09-01T02:26:30;1.52;;;1.20;;
16634;SDS011;8431;52.458;9.998;2022-09-01T02:29:03;1.20;;;1.20;;
16634;SDS011;8431;52.458;9.998;2022-09-01T02:31:35;1.00;;;1.00;;
16634;SDS011;8431;52.458;9.998;2022-09-01T02:34:04;1.08;;;1.02;;
16634;SDS011;8431;52.458;9.998;2022-09-01T02:36:35;0.98;;;0.98;;
16634;SDS011;8431;52.458;9.998;2022-09-01T02:39:09;1.70;;;1.40;;
16634;SDS011;8431;52.458;9.998;2022-09-01T02:41:39;1.40;;;1.30;;
16634;SDS011;8431;52.458;9.998;2022-09-01T02:44:06;1.17;;;1.17;;
16634;SDS011;8431;52.458;9.998;2022-09-01T02:46:37;1.75;;;1.42;;
16634;SDS011;8431;52.458;9.998;2022-09-01T02:49:06;1.40;;;1.40;;
16634;SDS011;8431;52.458;9.998;2022-09-01T02:51:39;1.35;;;1.33;;
16634;SDS011;8431;52.458;9.998;2022-09-01T02:54:07;1.48;;;1.38;;
16634;SDS011;8431;52.458;9.998;2022-09-01T02:56:34;1.42;;;1.30;;
16634;SDS011;8431;52.458;9.998;2022-09-01T02:59:01;1.80;;;1.63;;
16634;SDS011;8431;52.458;9.998;2022-09-01T03:01:29;1.63;;;1.52;;
16634;SDS011;8431;52.458;9.998;2022-09-01T03:03:59;1.60;;;1.50;;
16634;SDS011;8431;52.458;9.998;2022-09-01T03:06:29;3.63;;;1.17;;
16634;SDS011;8431;52.458;9.998;2022-09-01T03:09:01;1.25;;;1.10;;
16634;SDS011;8431;52.458;9.998;2022-09-01T03:11:30;1.35;;;1.35;;
16634;SDS011;8431;52.458;9.998;2022-09-01T03:13:59;1.73;;;1.60;;
16634;SDS011;8431;52.458;9.998;2022-09-01T03:16:26;1.23;;;1.23;;
16634;SDS011;8431;52.458;9.998;2022-09-01T03:18:55;2.28;;;1.60;;
16634;SDS011;8431;52.458;9.998;2022-09-01T03:21:24;1.40;;;1.30;;
16634;SDS011;8431;52.458;9.998;2022-09-01T03:23:52;1.50;;;1.40;;
16634;SDS011;8431;52.458;9.998;2022-09-01T03:26:19;2.97;;;1.45;;
16634;SDS011;8431;52.458;9.998;2022-09-01T03:28:47;1.70;;;1.60;;
16634;SDS011;8431;52.458;9.998;2022-09-01T03:31:15;2.45;;;1.80;;
16634;SDS011;8431;52.458;9.998;2022-09-01T03:33:42;1.80;;;1.70;;
16634;SDS011;8431;52.458;9.998;2022-09-01T03:36:09;1.58;;;1.48;;
16634;SDS011;8431;52.458;9.998;2022-09-01T03:38:44;1.83;;;1.73;;
16634;SDS011;8431;52.458;9.998;2022-09-01T03:41:13;2.03;;;1.70;;
16634;SDS011;8431;52.458;9.998;2022-09-01T03:43:42;2.50;;;2.40;;
16634;SDS011;8431;52.458;9.998;2022-09-01T03:46:10;3.08;;;1.65;;
16634;SDS011;8431;52.458;9.998;2022-09-01T03:48:44;1.83;;;1.73;;
16634;SDS011;8431;52.458;9.998;2022-09-01T03:51:13;2.05;;;1.95;;
16634;SDS011;8431;52.458;9.998;2022-09-01T03:53:40;2.13;;;1.80;;
16634;SDS011;8431;52.458;9.998;2022-09-01T03:56:10;2.47;;;1.90;;
16634;SDS011;8431;52.458;9.998;2022-09-01T03:58:39;2.10;;;1.92;;
16634;SDS011;8431;52.458;9.998;2022-09-01T04:01:09;2.13;;;2.03;;
16634;SDS011;8431;52.458;9.998;2022-09-01T04:03:37;2.50;;;1.90;;
16634;SDS011;8431;52.458;9.998;2022-09-01T04:06:06;2.80;;;1.90;;
16634;SDS011;8431;52.458;9.998;2022-09-01T04:08:34;2.75;;;1.83;;
16634;SDS011;8431;52.458;9.998;2022-09-01T04:11:03;2.00;;;1.45;;
16634;SDS011;8431;52.458;9.998;2022-09-01T04:13:37;2.67;;;1.80;;
16634;SDS011;8431;52.458;9.998;2022-09-01T04:16:06;2.38;;;2.17;;
16634;SDS011;8431;52.458;9.998;2022-09-01T04:19:01;2.00;;;1.45;;
16634;SDS011;8431;52.458;9.998;2022-09-01T04:21:39;1.88;;;1.77;;
16634;SDS011;8431;52.458;9.998;2022-09-01T04:24:07;1.50;;;1.50;;
16634;SDS011;8431;52.458;9.998;2022-09-01T04:26:34;2.33;;;1.70;;
16634;SDS011;8431;52.458;9.998;2022-09-01T04:29:03;2.60;;;1.65;;
16634;SDS011;8431;52.458;9.998;2022-09-01T04:31:30;2.40;;;2.03;;
16634;SDS011;8431;52.458;9.998;2022-09-01T04:33:57;2.22;;;1.90;;
16634;SDS011;8431;52.458;9.998;2022-09-01T04:36:27;4.90;;;2.00;;
16634;SDS011;8431;52.458;9.998;2022-09-01T04:38:58;1.67;;;1.58;;
16634;SDS011;8431;52.458;9.998;2022-09-01T04:41:33;1.90;;;1.80;;
16634;SDS011;8431;52.458;9.998;2022-09-01T04:44:04;2.13;;;1.90;;
16634;SDS011;8431;52.458;9.998;2022-09-01T04:46:32;2.05;;;1.85;;
16634;SDS011;8431;52.458;9.998;2022-09-01T04:49:01;2.15;;;2.05;;
16634;SDS011;8431;52.458;9.998;2022-09-01T04:51:30;2.97;;;2.08;;
16634;SDS011;8431;52.458;9.998;2022-09-01T04:53:57;4.72;;;2.78;;
16634;SDS011;8431;52.458;9.998;2022-09-01T04:56:24;6.30;;;2.65;;
16634;SDS011;8431;52.458;9.998;2022-09-01T04:58:57;5.97;;;2.80;;
16634;SDS011;8431;52.458;9.998;2022-09-01T05:01:26;4.60;;;3.20;;
16634;SDS011;8431;52.458;9.998;2022-09-01T05:03:53;3.78;;;3.13;;
16634;SDS011;8431;52.458;9.998;2022-09-01T05:06:25;3.13;;;2.90;;
16634;SDS011;8431;52.458;9.998;2022-09-01T05:08:53;4.53;;;3.40;;
16634;SDS011;8431;52.458;9.998;2022-09-01T05:11:21;4.40;;;3.13;;
16634;SDS011;8431;52.458;9.998;2022-09-01T05:13:50;3.22;;;3.03;;
16634;SDS011;8431;52.458;9.998;2022-09-01T05:16:22;4.82;;;3.10;;
16634;SDS011;8431;52.458;9.998;2022-09-01T05:18:53;3.88;;;3.47;;
16634;SDS011;8431;52.458;9.998;2022-09-01T05:21:21;3.97;;;3.67;;
16634;SDS011;8431;52.458;9.998;2022-09-01T05:23:52;3.55;;;3.25;;
16634;SDS011;8431;52.458;9.998;2022-09-01T05:26:21;3.83;;;3.53;;
16634;SDS011;8431;52.458;9.998;2022-09-01T05:28:51;3.95;;;3.28;;
16634;SDS011;8431;52.458;9.998;2022-09-01T05:33:53;4.05;;;3.75;;
16634;SDS011;8431;52.458;9.998;2022-09-01T05:36:22;5.28;;;4.40;;
16634;SDS011;8431;52.458;9.998;2022-09-01T05:38:51;4.88;;;4.53;;
16634;SDS011;8431;52.458;9.998;2022-09-01T05:41:19;5.20;;;4.80;;
16634;SDS011;8431;52.458;9.998;2022-09-01T05:43:51;4.70;;;4.22;;
16634;SDS011;8431;52.458;9.998;2022-09-01T05:46:23;4.68;;;4.13;;
16634;SDS011;8431;52.458;9.998;2022-09-01T05:48:53;4.72;;;3.92;;
16634;SDS011;8431;52.458;9.998;2022-09-01T05:51:22;6.75;;;4.00;;
16634;SDS011;8431;52.458;9.998;2022-09-01T05:53:52;4.28;;;3.53;;
16634;SDS011;8431;52.458;9.998;2022-09-01T05:56:23;7.32;;;3.75;;
16634;SDS011;8431;52.458;9.998;2022-09-01T05:58:50;3.85;;;3.58;;
16634;SDS011;8431;52.458;9.998;2022-09-01T06:01:19;3.03;;;2.83;;
16634;SDS011;8431;52.458;9.998;2022-09-01T06:03:51;3.47;;;3.17;;
16634;SDS011;8431;52.458;9.998;2022-09-01T06:06:21;2.97;;;2.55;;
16634;SDS011;8431;52.458;9.998;2022-09-01T06:08:49;4.43;;;2.70;;
16634;SDS011;8431;52.458;9.998;2022-09-01T06:11:16;3.58;;;2.63;;
16634;SDS011;8431;52.458;9.998;2022-09-01T06:13:48;4.90;;;2.53;;
16634;SDS011;8431;52.458;9.998;2022-09-01T06:16:16;3.30;;;2.40;;
16634;SDS011;8431;52.458;9.998;2022-09-01T06:18:43;5.03;;;2.22;;
16634;SDS011;8431;52.458;9.998;2022-09-01T06:21:11;3.42;;;2.25;;
16634;SDS011;8431;52.458;9.998;2022-09-01T06:23:41;2.83;;;2.00;;
16634;SDS011;8431;52.458;9.998;2022-09-01T06:26:15;2.25;;;2.13;;
16634;SDS011;8431;52.458;9.998;2022-09-01T06:28:42;3.58;;;1.92;;
16634;SDS011;8431;52.458;9.998;2022-09-01T06:31:10;2.63;;;2.00;;
16634;SDS011;8431;52.458;9.998;2022-09-01T06:33:38;1.80;;;1.70;;
16634;SDS011;8431;52.458;9.998;2022-09-01T06:36:05;1.85;;;1.75;;
16634;SDS011;8431;52.458;9.998;2022-09-01T06:38:33;1.95;;;1.80;;
16634;SDS011;8431;52.458;9.998;2022-09-01T06:41:03;1.50;;;1.38;;
16634;SDS011;8431;52.458;9.998;2022-09-01T06:43:37;2.28;;;1.35;;
16634;SDS011;8431;52.458;9.998;2022-09-01T06:46:06;1.30;;;1.20;;
16634;SDS011;8431;52.458;9.998;2022-09-01T06:48:33;1.80;;;1.70;;
16634;SDS011;8431;52.458;9.998;2022-09-01T06:51:01;1.85;;;1.10;;
16634;SDS011;8431;52.458;9.998;2022-09-01T06:53:28;1.63;;;1.40;;
16634;SDS011;8431;52.458;9.998;2022-09-01T06:55:56;1.30;;;1.30;;
16634;SDS011;8431;52.458;9.998;2022-09-01T06:58:24;2.38;;;1.25;;
16634;SDS011;8431;52.458;9.998;2022-09-01T07:00:53;2.67;;;1.42;;
16634;SDS011;8431;52.458;9.998;2022-09-01T07:03:20;2.38;;;1.17;;
16634;SDS011;8431;52.458;9.998;2022-09-01T07:05:49;2.60;;;1.00;;
16634;SDS011;8431;52.458;9.998;2022-09-01T07:08:17;9.32;;;1.52;;
16634;SDS011;8431;52.458;9.998;2022-09-01T07:10:47;1.95;;;0.90;;
16634;SDS011;8431;52.458;9.998;2022-09-01T07:13:16;1.77;;;1.00;;
16634;SDS011;8431;52.458;9.998;2022-09-01T07:15:47;2.70;;;1.17;;
16634;SDS011;8431;52.458;9.998;2022-09-01T07:18:15;1.85;;;0.85;;
16634;SDS011;8431;52.458;9.998;2022-09-01T07:20:45;0.98;;;0.98;;
16634;SDS011;8431;52.458;9.998;2022-09-01T07:23:13;0.80;;;0.80;;
16634;SDS011;8431;52.458;9.998;2022-09-01T07:25:42;0.63;;;0.63;;
16634;SDS011;8431;52.458;9.998;2022-09-01T07:28:11;0.77;;;0.77;;
16634;SDS011;8431;52.458;9.998;2022-09-01T07:30:41;1.67;;;0.80;;
16634;SDS011;8431;52.458;9.998;2022-09-01T07:33:11;2.47;;;0.90;;
16634;SDS011;8431;52.458;9.998;2022-09-01T07:35:38;1.23;;;0.70;;
16634;SDS011;8431;52.458;9.998;2022-09-01T07:38:07;2.13;;;0.90;;
16634;SDS011;8431;52.458;9.998;2022-09-01T07:40:34;1.33;;;0.60;;
16634;SDS011;8431;52.458;9.998;2022-09-01T07:43:03;4.60;;;0.80;;
16634;SDS011;8431;52.458;9.998;2022-09-01T07:45:34;0.63;;;0.57;;
16634;SDS011;8431;52.458;9.998;2022-09-01T07:48:04;4.95;;;1.20;;
16634;SDS011;8431;52.458;9.998;2022-09-01T07:50:34;1.10;;;0.90;;
16634;SDS011;8431;52.458;9.998;2022-09-01T07:53:02;2.05;;;0.73;;
16634;SDS011;8431;52.458;9.998;2022-09-01T07:55:29;1.80;;;0.90;;
16634;SDS011;8431;52.458;9.998;2022-09-01T07:57:58;3.00;;;1.25;;
16634;SDS011;8431;52.458;9.998;2022-09-01T08:00:25;0.80;;;0.50;;
16634;SDS011;8431;52.458;9.998;2022-09-01T08:02:53;1.80;;;0.77;;
16634;SDS011;8431;52.458;9.998;2022-09-01T08:05:20;3.67;;;1.33;;
16634;SDS011;8431;52.458;9.998;2022-09-01T08:07:52;5.57;;;0.80;;
16634;SDS011;8431;52.458;9.998;2022-09-01T08:10:19;0.80;;;0.80;;
16634;SDS011;8431;52.458;9.998;2022-09-01T08:12:47;8.70;;;0.98;;
16634;SDS011;8431;52.458;9.998;2022-09-01T08:15:14;2.40;;;0.75;;
16634;SDS011;8431;52.458;9.998;2022-09-01T08:17:42;5.13;;;0.80;;
16634;SDS011;8431;52.458;9.998;2022-09-01T08:20:09;1.27;;;0.80;;
16634;SDS011;8431;52.458;9.998;2022-09-01T08:22:37;1.80;;;0.77;;
16634;SDS011;8431;52.458;9.998;2022-09-01T08:25:06;0.98;;;0.75;;
16634;SDS011;8431;52.458;9.998;2022-09-01T08:27:35;0.65;;;0.65;;
16634;SDS011;8431;52.458;9.998;2022-09-01T08:30:04;2.40;;;0.90;;
16634;SDS011;8431;52.458;9.998;2022-09-01T08:32:33;4.65;;;0.80;;
16634;SDS011;8431;52.458;9.998;2022-09-01T08:35:00;1.70;;;0.90;;
16634;SDS011;8431;52.458;9.998;2022-09-01T08:37:28;1.70;;;0.70;;
16634;SDS011;8431;52.458;9.998;2022-09-01T08:39:56;1.75;;;0.77;;
16634;SDS011;8431;52.458;9.998;2022-09-01T08:42:29;0.70;;;0.70;;
16634;SDS011;8431;52.458;9.998;2022-09-01T08:45:07;5.28;;;0.88;;
16634;SDS011;8431;52.458;9.998;2022-09-01T08:47:40;0.98;;;0.80;;
16634;SDS011;8431;52.458;9.998;2022-09-01T08:50:08;1.38;;;0.55;;
16634;SDS011;8431;52.458;9.998;2022-09-01T08:52:37;2.65;;;0.70;;
16634;SDS011;8431;52.458;9.998;2022-09-01T08:55:09;1.00;;;0.90;;
16634;SDS011;8431;52.458;9.998;2022-09-01T08:57:43;0.70;;;0.70;;
16634;SDS011;8431;52.458;9.998;2022-09-01T09:00:13;0.70;;;0.52;;
16634;SDS011;8431;52.458;9.998;2022-09-01T09:02:50;0.80;;;0.57;;
16634;SDS011;8431;52.458;9.998;2022-09-01T09:05:28;0.60;;;0.60;;
16634;SDS011;8431;52.458;9.998;2022-09-01T09:08:09;0.80;;;0.80;;
16634;SDS011;8431;52.458;9.998;2022-09-01T09:10:59;4.22;;;0.90;;
16634;SDS011;8431;52.458;9.998;2022-09-01T09:13:33;5.05;;;0.70;;
16634;SDS011;8431;52.458;9.998;2022-09-01T09:16:11;1.10;;;0.73;;
16634;SDS011;8431;52.458;9.998;2022-09-01T09:18:43;1.75;;;0.75;;
16634;SDS011;8431;52.458;9.998;2022-09-01T09:21:15;2.60;;;0.60;;
16634;SDS011;8431;52.458;9.998;2022-09-01T09:23:49;1.83;;;0.90;;
16634;SDS011;8431;52.458;9.998;2022-09-01T09:26:23;0.93;;;0.93;;
16634;SDS011;8431;52.458;9.998;2022-09-01T09:28:52;2.67;;;0.50;;
16634;SDS011;8431;52.458;9.998;2022-09-01T09:31:29;0.50;;;0.50;;
16634;SDS011;8431;52.458;9.998;2022-09-01T09:33:58;3.22;;;1.20;;
16634;SDS011;8431;52.458;9.998;2022-09-01T09:36:30;0.50;;;0.50;;
16634;SDS011;8431;52.458;9.998;2022-09-01T09:39:09;3.45;;;0.90;;
16634;SDS011;8431;52.458;9.998;2022-09-01T09:42:03;1.98;;;0.60;;
16634;SDS011;8431;52.458;9.998;2022-09-01T09:44:38;0.70;;;0.70;;
16634;SDS011;8431;52.458;9.998;2022-09-01T09:47:08;3.67;;;0.57;;
16634;SDS011;8431;52.458;9.998;2022-09-01T09:49:35;0.52;;;0.52;;
16634;SDS011;8431;52.458;9.998;2022-09-01T09:52:13;1.92;;;0.40;;
16634;SDS011;8431;52.458;9.998;2022-09-01T09:54:56;0.82;;;0.35;;
16634;SDS011;8431;52.458;9.998;2022-09-01T09:57:25;1.92;;;0.47;;
16634;SDS011;8431;52.458;9.998;2022-09-01T09:59:58;0.40;;;0.40;;
16634;SDS011;8431;52.458;9.998;2022-09-01T10:02:30;3.35;;;0.68;;
16634;SDS011;8431;52.458;9.998;2022-09-01T10:04:59;2.20;;;0.52;;
16634;SDS011;8431;52.458;9.998;2022-09-01T10:07:28;0.40;;;0.40;;
16634;SDS011;8431;52.458;9.998;2022-09-01T10:09:59;1.00;;;0.60;;
16634;SDS011;8431;52.458;9.998;2022-09-01T10:12:28;1.15;;;0.55;;
16634;SDS011;8431;52.458;9.998;2022-09-01T10:14:59;0.90;;;0.90;;
16634;SDS011;8431;52.458;9.998;2022-09-01T10:20:05;1.05;;;0.70;;
16634;SDS011;8431;52.458;9.998;2022-09-01T10:22:34;1.23;;;0.85;;
16634;SDS011;8431;52.458;9.998;2022-09-01T10:25:03;3.63;;;0.70;;
16634;SDS011;8431;52.458;9.998;2022-09-01T10:27:32;0.70;;;0.70;;
16634;SDS011;8431;52.458;9.998;2022-09-01T10:30:06;0.70;;;0.70;;
16634;SDS011;8431;52.458;9.998;2022-09-01T10:32:39;1.63;;;0.73;;
16634;SDS011;8431;52.458;9.998;2022-09-01T10:35:09;1.65;;;0.70;;
16634;SDS011;8431;52.458;9.998;2022-09-01T10:37:44;1.08;;;0.80;;
16634;SDS011;8431;52.458;9.998;2022-09-01T10:40:18;1.85;;;1.08;;
16634;SDS011;8431;52.458;9.998;2022-09-01T10:45:51;1.75;;;0.80;;
16634;SDS011;8431;52.458;9.998;2022-09-01T10:48:25;0.88;;;0.88;;
16634;SDS011;8431;52.458;9.998;2022-09-01T10:53:55;0.88;;;0.88;;
16634;SDS011;8431;52.458;9.998;2022-09-01T10:56:26;0.98;;;0.70;;
16634;SDS011;8431;52.458;9.998;2022-09-01T10:59:07;2.88;;;0.80;;
16634;SDS011;8431;52.458;9.998;2022-09-01T11:07:39;2.80;;;0.80;;
16634;SDS011;8431;52.458;9.998;2022-09-01T11:10:21;1.67;;;0.98;;
16634;SDS011;8431;52.458;9.998;2022-09-01T11:19:13;1.25;;;1.15;;
16634;SDS011;8431;52.458;9.998;2022-09-01T11:22:01;2.50;;;0.90;;
16634;SDS011;8431;52.458;9.998;2022-09-01T11:24:42;1.10;;;0.93;;
16634;SDS011;8431;52.458;9.998;2022-09-01T11:30:15;1.20;;;0.70;;
16634;SDS011;8431;52.458;9.998;2022-09-01T11:32:44;1.50;;;0.90;;
16634;SDS011;8431;52.458;9.998;2022-09-01T11:35:16;3.70;;;0.70;;
16634;SDS011;8431;52.458;9.998;2022-09-01T11:37:46;0.75;;;0.73;;
16634;SDS011;8431;52.458;9.998;2022-09-01T11:40:19;1.30;;;0.68;;
16634;SDS011;8431;52.458;9.998;2022-09-01T11:42:48;1.17;;;0.60;;
16634;SDS011;8431;52.458;9.998;2022-09-01T11:45:18;0.70;;;0.70;;
16634;SDS011;8431;52.458;9.998;2022-09-01T11:47:49;2.58;;;1.00;;
16634;SDS011;8431;52.458;9.998;2022-09-01T11:50:22;2.60;;;0.80;;
16634;SDS011;8431;52.458;9.998;2022-09-01T11:52:53;1.65;;;1.15;;
16634;SDS011;8431;52.458;9.998;2022-09-01T11:55:28;0.75;;;0.75;;
16634;SDS011;8431;52.458;9.998;2022-09-01T11:57:56;0.68;;;0.68;;
16634;SDS011;8431;52.458;9.998;2022-09-01T12:00:25;0.80;;;0.80;;
16634;SDS011;8431;52.458;9.998;2022-09-01T12:02:53;2.25;;;0.80;;
16634;SDS011;8431;52.458;9.998;2022-09-01T12:05:29;2.28;;;0.85;;
16634;SDS011;8431;52.458;9.998;2022-09-01T12:07:58;0.70;;;0.70;;
16634;SDS011;8431;52.458;9.998;2022-09-01T12:10:31;0.80;;;0.80;;
16634;SDS011;8431;52.458;9.998;2022-09-01T12:13:01;0.63;;;0.60;;
16634;SDS011;8431;52.458;9.998;2022-09-01T12:15:30;1.92;;;0.75;;
16634;SDS011;8431;52.458;9.998;2022-09-01T12:18:09;4.07;;;0.70;;
16634;SDS011;8431;52.458;9.998;2022-09-01T12:20:40;2.50;;;0.73;;
16634;SDS011;8431;52.458;9.998;2022-09-01T12:23:18;6.57;;;1.00;;
16634;SDS011;8431;52.458;9.998;2022-09-01T12:25:50;6.13;;;0.85;;
16634;SDS011;8431;52.458;9.998;2022-09-01T12:28:19;1.63;;;0.57;;
16634;SDS011;8431;52.458;9.998;2022-09-01T12:30:52;0.52;;;0.43;;
16634;SDS011;8431;52.458;9.998;2022-09-01T12:33:20;1.02;;;0.50;;
16634;SDS011;8431;52.458;9.998;2022-09-01T12:35:51;0.70;;;0.70;;
16634;SDS011;8431;52.458;9.998;2022-09-01T12:38:36;0.70;;;0.70;;
16634;SDS011;8431;52.458;9.998;2022-09-01T12:41:15;0.80;;;0.80;;
16634;SDS011;8431;52.458;9.998;2022-09-01T12:43:52;1.23;;;0.73;;
16634;SDS011;8431;52.458;9.998;2022-09-01T12:49:17;0.82;;;0.70;;
16634;SDS011;8431;52.458;9.998;2022-09-01T12:51:46;1.02;;;0.60;;
16634;SDS011;8431;52.458;9.998;2022-09-01T12:54:14;2.25;;;0.68;;
16634;SDS011;8431;52.458;9.998;2022-09-01T12:56:49;3.58;;;1.05;;
16634;SDS011;8431;52.458;9.998;2022-09-01T12:59:20;0.85;;;0.85;;
16634;SDS011;8431;52.458;9.998;2022-09-01T13:01:49;1.20;;;0.80;;
16634;SDS011;8431;52.458;9.998;2022-09-01T13:04:26;3.03;;;0.90;;
16634;SDS011;8431;52.458;9.998;2022-09-01T13:06:59;1.92;;;0.77;;
16634;SDS011;8431;52.458;9.998;2022-09-01T13:09:27;9.52;;;1.05;;
16634;SDS011;8431;52.458;9.998;2022-09-01T13:12:07;3.25;;;0.90;;
16634;SDS011;8431;52.458;9.998;2022-09-01T13:14:35;3.92;;;0.90;;
16634;SDS011;8431;52.458;9.998;2022-09-01T13:17:02;1.15;;;0.80;;
16634;SDS011;8431;52.458;9.998;2022-09-01T13:19:30;2.00;;;0.75;;
16634;SDS011;8431;52.458;9.998;2022-09-01T13:22:00;0.60;;;0.60;;
16634;SDS011;8431;52.458;9.998;2022-09-01T13:24:27;0.70;;;0.70;;
16634;SDS011;8431;52.458;9.998;2022-09-01T13:26:54;0.70;;;0.70;;
16634;SDS011;8431;52.458;9.998;2022-09-01T13:29:21;1.45;;;0.80;;
16634;SDS011;8431;52.458;9.998;2022-09-01T13:31:49;0.80;;;0.80;;
16634;SDS011;8431;52.458;9.998;2022-09-01T13:34:16;0.90;;;0.90;;
16634;SDS011;8431;52.458;9.998;2022-09-01T13:36:46;2.22;;;0.70;;
16634;SDS011;8431;52.458;9.998;2022-09-01T13:39:14;0.60;;;0.60;;
16634;SDS011;8431;52.458;9.998;2022-09-01T13:41:41;3.47;;;0.82;;
16634;SDS011;8431;52.458;9.998;2022-09-01T13:44:08;0.95;;;0.60;;
16634;SDS011;8431;52.458;9.998;2022-09-01T13:46:35;1.88;;;1.08;;
16634;SDS011;8431;52.458;9.998;2022-09-01T13:49:04;1.40;;;0.80;;
16634;SDS011;8431;52.458;9.998;2022-09-01T13:51:31;3.00;;;0.85;;
16634;SDS011;8431;52.458;9.998;2022-09-01T13:53:59;2.58;;;0.65;;
16634;SDS011;8431;52.458;9.998;2022-09-01T13:56:27;4.43;;;0.98;;
16634;SDS011;8431;52.458;9.998;2022-09-01T13:58:55;0.80;;;0.80;;
16634;SDS011;8431;52.458;9.998;2022-09-01T14:01:22;3.20;;;1.00;;
16634;SDS011;8431;52.458;9.998;2022-09-01T14:03:49;0.70;;;0.70;;
16634;SDS011;8431;52.458;9.998;2022-09-01T14:06:16;2.25;;;0.95;;
16634;SDS011;8431;52.458;9.998;2022-09-01T14:08:45;0.70;;;0.70;;
16634;SDS011;8431;52.458;9.998;2022-09-01T14:11:15;1.45;;;0.77;;
16634;SDS011;8431;52.458;9.998;2022-09-01T14:13:46;0.65;;;0.60;;
16634;SDS011;8431;52.458;9.998;2022-09-01T14:16:13;1.48;;;0.80;;
16634;SDS011;8431;52.458;9.998;2022-09-01T14:18:40;1.30;;;0.70;;
16634;SDS011;8431;52.458;9.998;2022-09-01T14:21:09;0.60;;;0.60;;
16634;SDS011;8431;52.458;9.998;2022-09-01T14:23:36;1.65;;;0.70;;
16634;SDS011;8431;52.458;9.998;2022-09-01T14:26:06;5.53;;;1.05;;
16634;SDS011;8431;52.458;9.998;2022-09-01T14:28:34;0.70;;;0.70;;
16634;SDS011;8431;52.458;9.998;2022-09-01T14:31:06;0.70;;;0.70;;
16634;SDS011;8431;52.458;9.998;2022-09-01T14:33:33;0.65;;;0.65;;
16634;SDS011;8431;52.458;9.998;2022-09-01T14:36:02;1.05;;;0.70;;
16634;SDS011;8431;52.458;9.998;2022-09-01T14:38:39;2.63;;;0.70;;
16634;SDS011;8431;52.458;9.998;2022-09-01T14:41:06;0.93;;;0.85;;
16634;SDS011;8431;52.458;9.998;2022-09-01T14:43:33;1.23;;;0.77;;
16634;SDS011;8431;52.458;9.998;2022-09-01T14:46:02;1.98;;;0.85;;
16634;SDS011;8431;52.458;9.998;2022-09-01T14:48:32;0.80;;;0.65;;
16634;SDS011;8431;52.458;9.998;2022-09-01T14:50:59;0.98;;;0.90;;
16634;SDS011;8431;52.458;9.998;2022-09-01T14:53:26;0.88;;;0.88;;
16634;SDS011;8431;52.458;9.998;2022-09-01T14:55:56;1.38;;;0.82;;
16634;SDS011;8431;52.458;9.998;2022-09-01T14:58:24;1.95;;;0.80;;
16634;SDS011;8431;52.458;9.998;2022-09-01T15:00:52;2.25;;;0.80;;
16634;SDS011;8431;52.458;9.998;2022-09-01T15:03:21;1.30;;;0.70;;
16634;SDS011;8431;52.458;9.998;2022-09-01T15:05:50;1.40;;;0.90;;
16634;SDS011;8431;52.458;9.998;2022-09-01T15:08:17;0.77;;;0.70;;
16634;SDS011;8431;52.458;9.998;2022-09-01T15:10:45;1.00;;;0.80;;
16634;SDS011;8431;52.458;9.998;2022-09-01T15:13:12;0.75;;;0.75;;
16634;SDS011;8431;52.458;9.998;2022-09-01T15:15:39;0.70;;;0.70;;
16634;SDS011;8431;52.458;9.998;2022-09-01T15:18:06;1.55;;;0.75;;
16634;SDS011;8431;52.458;9.998;2022-09-01T15:20:38;0.60;;;0.60;;
16634;SDS011;8431;52.458;9.998;2022-09-01T15:23:13;0.80;;;0.80;;
16634;SDS011;8431;52.458;9.998;2022-09-01T15:25:42;0.80;;;0.80;;
16634;SDS011;8431;52.458;9.998;2022-09-01T15:28:09;3.53;;;0.65;;
16634;SDS011;8431;52.458;9.998;2022-09-01T15:30:37;2.55;;;0.75;;
16634;SDS011;8431;52.458;9.998;2022-09-01T15:33:04;0.60;;;0.60;;
16634;SDS011;8431;52.458;9.998;2022-09-01T15:35:33;0.85;;;0.70;;
16634;SDS011;8431;52.458;9.998;2022-09-01T15:38:02;1.23;;;0.65;;
16634;SDS011;8431;52.458;9.998;2022-09-01T15:40:31;1.27;;;0.90;;
16634;SDS011;8431;52.458;9.998;2022-09-01T15:42:58;0.77;;;0.70;;
16634;SDS011;8431;52.458;9.998;2022-09-01T15:45:26;0.60;;;0.60;;
16634;SDS011;8431;52.458;9.998;2022-09-01T15:47:53;2.05;;;0.90;;